createdAt,value
2018-07-30T00:01:19.437Z,28.90
2018-07-30T00:03:03.652Z,29.00
2018-07-30T00:04:41.143Z,29.10
2018-07-30T00:06:20.234Z,29.30
2018-07-30T00:09:32.809Z,29.40
2018-07-30T00:11:09.277Z,29.20
2018-07-30T00:12:46.168Z,29.20
2018-07-30T00:14:22.769Z,29.10
2018-07-30T00:17:35.474Z,29.10
2018-07-30T00:19:13.614Z,29.00
2018-07-30T00:20:51.002Z,28.60
2018-07-30T00:22:27.358Z,28.20
2018-07-30T00:24:03.850Z,27.90
2018-07-30T00:25:41.505Z,27.80
2018-07-30T00:27:17.991Z,27.80
2018-07-30T00:28:56.608Z,28.00
2018-07-30T00:30:33.307Z,28.40
2018-07-30T00:32:10.079Z,28.70
2018-07-30T00:33:46.476Z,28.80
2018-07-30T00:37:06.026Z,28.90
2018-07-30T00:38:42.828Z,28.90
2018-07-30T00:40:19.396Z,28.80
2018-07-30T00:41:55.870Z,28.50
2018-07-30T00:45:08.474Z,28.60
2018-07-30T00:48:21.997Z,28.90
2018-07-30T00:49:59.394Z,28.90
2018-07-30T00:51:36.394Z,29.00
2018-07-30T00:53:13.289Z,29.00
2018-07-30T00:54:49.907Z,28.90
2018-07-30T00:56:26.401Z,29.20
2018-07-30T00:58:03.139Z,29.20
2018-07-30T00:59:40.732Z,29.20
2018-07-30T01:01:17.715Z,29.20
2018-07-30T01:02:54.186Z,29.10
2018-07-30T01:04:36.664Z,29.00
2018-07-30T01:06:14.081Z,29.00
2018-07-30T01:07:50.438Z,28.90
2018-07-30T01:09:27.608Z,28.90
2018-07-30T01:11:04.570Z,29.00
2018-07-30T01:12:41.055Z,29.00
2018-07-30T01:14:17.616Z,29.00
2018-07-30T01:15:54.444Z,29.00
2018-07-30T01:17:31.256Z,28.90
2018-07-30T01:19:11.466Z,28.70
2018-07-30T01:20:49.809Z,28.30
2018-07-30T01:22:26.266Z,27.90
2018-07-30T01:24:02.839Z,27.60
2018-07-30T01:25:39.372Z,27.30
2018-07-30T01:27:15.902Z,27.00
2018-07-30T01:28:53.230Z,27.00
2018-07-30T01:30:30.851Z,26.90
2018-07-30T01:32:08.074Z,27.10
2018-07-30T01:33:44.508Z,27.30
2018-07-30T01:35:21.346Z,27.40
2018-07-30T01:36:57.941Z,27.40
2018-07-30T01:38:34.464Z,27.30
2018-07-30T01:40:11.843Z,27.40
2018-07-30T01:41:48.674Z,27.60
2018-07-30T01:43:25.050Z,27.70
2018-07-30T01:45:01.476Z,27.70
2018-07-30T01:46:39.270Z,27.80
2018-07-30T01:48:17.390Z,27.80
2018-07-30T01:49:53.978Z,27.90
2018-07-30T01:51:32.188Z,27.90
2018-07-30T01:53:09.631Z,28.00
2018-07-30T01:54:46.842Z,27.90
2018-07-30T01:56:23.977Z,28.00
2018-07-30T01:58:00.739Z,27.90
2018-07-30T01:59:37.477Z,27.70
2018-07-30T02:01:14.651Z,27.40
2018-07-30T02:02:51.766Z,27.20
2018-07-30T02:04:28.127Z,27.00
2018-07-30T02:06:05.125Z,26.70
2018-07-30T02:07:42.957Z,26.80
2018-07-30T02:09:19.450Z,27.00
2018-07-30T02:10:56.027Z,27.30
2018-07-30T02:12:32.471Z,27.40
2018-07-30T02:14:09.390Z,27.50
2018-07-30T02:15:46.225Z,27.50
2018-07-30T02:17:22.874Z,27.40
2018-07-30T02:18:59.417Z,27.30
2018-07-30T02:20:36.292Z,27.30
2018-07-30T02:22:12.862Z,27.20
2018-07-30T02:23:49.263Z,27.30
2018-07-30T02:25:26.610Z,27.40
2018-07-30T02:27:03.574Z,27.40
2018-07-30T02:28:40.016Z,27.50
2018-07-30T02:30:19.764Z,27.60
2018-07-30T02:31:56.860Z,27.40
2018-07-30T02:33:33.821Z,26.70
2018-07-30T02:35:10.948Z,26.40
2018-07-30T02:36:48.944Z,26.00
2018-07-30T02:38:25.451Z,25.90
2018-07-30T02:40:03.419Z,25.80
2018-07-30T02:41:39.926Z,25.60
2018-07-30T02:43:16.440Z,25.20
2018-07-30T02:44:53.115Z,25.20
2018-07-30T02:46:31.604Z,25.10
2018-07-30T02:48:07.961Z,24.80
2018-07-30T02:49:44.433Z,24.70
2018-07-30T02:51:21.309Z,24.70
2018-07-30T02:52:58.299Z,24.70
2018-07-30T02:54:35.407Z,24.80
2018-07-30T02:56:11.965Z,25.20
2018-07-30T02:57:49.348Z,25.60
2018-07-30T02:59:26.443Z,25.80
2018-07-30T03:01:03.667Z,26.00
2018-07-30T03:02:40.199Z,26.10
2018-07-30T03:04:17.057Z,26.10
2018-07-30T03:05:53.959Z,25.80
2018-07-30T03:07:30.542Z,25.60
2018-07-30T03:09:11.068Z,25.20
2018-07-30T03:10:47.701Z,25.00
2018-07-30T03:12:24.702Z,24.80
2018-07-30T03:14:01.159Z,24.60
2018-07-30T03:15:39.201Z,24.40
2018-07-30T03:17:15.615Z,24.30
2018-07-30T03:18:53.706Z,24.20
2018-07-30T03:20:30.204Z,24.10
2018-07-30T03:22:06.829Z,24.00
2018-07-30T03:23:43.300Z,23.90
2018-07-30T03:25:20.693Z,23.90
2018-07-30T03:26:57.194Z,23.90
2018-07-30T03:28:33.940Z,23.90
2018-07-30T03:30:11.691Z,23.90
2018-07-30T03:33:24.999Z,23.90
2018-07-30T03:35:01.444Z,23.90
2018-07-30T03:36:37.884Z,23.90
2018-07-30T03:38:15.043Z,23.80
2018-07-30T03:39:51.573Z,23.80
2018-07-30T03:41:28.139Z,23.80
2018-07-30T03:43:04.731Z,23.70
2018-07-30T03:44:41.826Z,23.80
2018-07-30T03:46:18.709Z,23.80
2018-07-30T03:47:55.450Z,23.80
2018-07-30T03:49:31.917Z,23.90
2018-07-30T03:51:08.889Z,23.90
2018-07-30T03:52:46.636Z,23.90
2018-07-30T03:54:23.624Z,23.80
2018-07-30T03:56:00.037Z,23.80
2018-07-30T03:57:36.933Z,23.70
2018-07-30T03:59:13.415Z,23.70
2018-07-30T04:00:50.852Z,23.60
2018-07-30T04:02:27.310Z,23.70
2018-07-30T04:04:04.327Z,23.80
2018-07-30T04:05:40.765Z,23.80
2018-07-30T04:07:17.234Z,23.80
2018-07-30T04:08:53.880Z,23.60
2018-07-30T04:10:30.370Z,23.50
2018-07-30T04:12:06.874Z,23.50
2018-07-30T04:13:43.894Z,23.40
2018-07-30T04:15:20.930Z,23.40
2018-07-30T04:16:58.770Z,23.40
2018-07-30T04:18:35.208Z,23.40
2018-07-30T04:20:11.681Z,23.40
2018-07-30T04:21:48.322Z,23.30
2018-07-30T04:23:27.189Z,23.20
2018-07-30T04:25:03.708Z,23.30
2018-07-30T04:26:40.482Z,23.40
2018-07-30T04:28:18.099Z,23.40
2018-07-30T04:29:54.923Z,23.40
2018-07-30T04:31:31.682Z,23.40
2018-07-30T04:33:09.935Z,23.40
2018-07-30T04:34:46.459Z,23.60
2018-07-30T04:36:23.097Z,23.80
2018-07-30T04:38:01.314Z,23.80
2018-07-30T04:39:37.806Z,23.90
2018-07-30T04:41:15.100Z,23.90
2018-07-30T04:42:52.142Z,24.00
2018-07-30T04:44:28.735Z,23.90
2018-07-30T04:46:06.381Z,24.10
2018-07-30T04:47:42.917Z,24.30
2018-07-30T04:49:20.229Z,24.60
2018-07-30T04:50:57.180Z,24.80
2018-07-30T04:52:33.804Z,24.80
2018-07-30T04:54:10.246Z,24.80
2018-07-30T04:55:47.079Z,24.90
2018-07-30T04:57:23.807Z,25.10
2018-07-30T04:59:01.010Z,25.10
2018-07-30T05:00:37.611Z,25.00
2018-07-30T05:02:14.437Z,25.00
2018-07-30T05:03:52.697Z,25.00
2018-07-30T05:05:29.265Z,24.80
2018-07-30T05:07:06.037Z,24.70
2018-07-30T05:08:42.941Z,24.50
2018-07-30T05:10:19.640Z,24.80
2018-07-30T05:11:56.067Z,25.10
2018-07-30T05:13:32.388Z,25.40
2018-07-30T05:15:09.328Z,25.50
2018-07-30T05:16:46.637Z,25.70
2018-07-30T05:18:23.061Z,25.70
2018-07-30T05:19:59.563Z,25.90
2018-07-30T05:21:37.956Z,26.10
2018-07-30T05:23:14.334Z,26.40
2018-07-30T05:24:51.648Z,26.40
2018-07-30T05:26:28.082Z,26.20
2018-07-30T05:28:04.905Z,25.90
2018-07-30T05:29:41.863Z,25.70
2018-07-30T05:31:18.789Z,25.60
2018-07-30T05:32:55.192Z,25.80
2018-07-30T05:34:32.115Z,25.80
2018-07-30T05:36:08.585Z,25.70
2018-07-30T05:37:45.035Z,25.80
2018-07-30T05:39:21.516Z,26.20
2018-07-30T05:40:58.398Z,25.90
2018-07-30T05:42:35.758Z,26.10
2018-07-30T05:44:12.389Z,26.20
2018-07-30T05:45:49.156Z,26.50
2018-07-30T05:47:32.955Z,26.60
2018-07-30T05:52:14.949Z,27.30
2018-07-30T05:53:51.859Z,27.60
2018-07-30T05:55:28.259Z,27.50
2018-07-30T05:57:05.773Z,27.30
2018-07-30T05:58:42.281Z,27.20
2018-07-30T06:00:21.465Z,26.90
2018-07-30T06:02:02.275Z,26.60
2018-07-30T06:03:40.550Z,26.40
2018-07-30T06:05:17.792Z,26.20
2018-07-30T06:06:55.500Z,26.00
2018-07-30T06:08:31.895Z,25.70
2018-07-30T06:10:08.597Z,25.80
2018-07-30T06:11:46.459Z,25.60
2018-07-30T06:13:23.331Z,25.40
2018-07-30T06:15:04.094Z,25.30
2018-07-30T06:16:43.603Z,25.30
2018-07-30T06:18:22.196Z,25.40
2018-07-30T06:21:37.495Z,25.20
2018-07-30T06:23:22.174Z,25.40
2018-07-30T06:24:59.715Z,25.30
2018-07-30T06:26:36.667Z,25.20
2018-07-30T06:30:01.956Z,25.60
2018-07-30T06:31:45.430Z,25.60
2018-07-30T06:33:27.005Z,25.50
2018-07-30T06:35:04.379Z,25.50
2018-07-30T06:36:42.236Z,25.60
2018-07-30T06:38:20.980Z,25.80
2018-07-30T06:39:59.539Z,25.80
2018-07-30T06:41:44.924Z,25.90
2018-07-30T06:43:22.290Z,26.00
2018-07-30T06:45:01.516Z,26.20
2018-07-30T06:46:45.153Z,26.70
2018-07-30T06:48:22.262Z,27.20
2018-07-30T06:50:01.676Z,27.60
2018-07-30T06:51:46.271Z,27.60
2018-07-30T06:53:28.168Z,27.80
2018-07-30T06:55:07.006Z,28.20
2018-07-30T06:56:59.975Z,28.30
2018-07-30T07:00:15.166Z,27.90
2018-07-30T07:01:53.940Z,28.30
2018-07-30T07:03:31.728Z,28.70
2018-07-30T07:05:28.659Z,29.00
2018-07-30T07:07:12.779Z,29.10
2018-07-30T07:08:56.231Z,29.20
2018-07-30T07:10:41.358Z,29.10
2018-07-30T07:12:24.265Z,29.20
2018-07-30T07:14:39.191Z,28.80
2018-07-30T07:16:32.670Z,28.80
2018-07-30T07:18:16.874Z,29.60
2018-07-30T07:20:00.906Z,29.90
2018-07-30T07:21:45.572Z,29.90
2018-07-30T07:25:08.991Z,28.90
2018-07-30T07:26:48.056Z,28.60
2018-07-30T07:28:28.529Z,28.40
2018-07-30T07:30:13.552Z,28.90
2018-07-30T07:31:51.658Z,29.10
2018-07-30T07:33:32.431Z,29.40
2018-07-30T07:35:35.130Z,29.70
2018-07-30T07:37:15.618Z,30.20
2018-07-30T07:38:55.414Z,30.30
2018-07-30T07:42:11.296Z,30.40
2018-07-30T07:43:48.226Z,30.50
2018-07-30T07:45:26.203Z,30.50
2018-07-30T07:47:04.587Z,29.50
2018-07-30T07:48:45.241Z,29.20
2018-07-30T07:50:27.243Z,29.60
2018-07-30T07:53:49.820Z,30.50
2018-07-30T07:55:33.932Z,30.10
2018-07-30T07:57:13.221Z,29.30
2018-07-30T08:00:58.153Z,28.80
2018-07-30T08:02:36.944Z,29.30
2018-07-30T08:04:13.832Z,29.70
2018-07-30T08:05:52.558Z,29.90
2018-07-30T08:07:32.436Z,29.30
2018-07-30T08:09:14.225Z,28.80
2018-07-30T08:11:02.015Z,28.40
2018-07-30T08:12:40.703Z,28.50
2018-07-30T08:14:25.155Z,28.90
2018-07-30T08:16:03.695Z,29.60
2018-07-30T08:17:49.096Z,30.30
2018-07-30T08:19:26.734Z,30.70
2018-07-30T08:21:13.478Z,30.30
2018-07-30T08:24:38.671Z,30.40
2018-07-30T08:26:37.899Z,30.90
2018-07-30T08:28:14.528Z,31.50
2018-07-30T08:29:52.956Z,31.80
2018-07-30T08:31:30.731Z,31.90
2018-07-30T08:33:10.449Z,32.00
2018-07-30T08:34:48.502Z,31.30
2018-07-30T08:36:32.204Z,30.20
2018-07-30T08:38:38.606Z,29.60
2018-07-30T08:40:16.370Z,29.50
2018-07-30T08:42:06.673Z,30.00
2018-07-30T08:43:44.084Z,30.20
2018-07-30T08:46:58.075Z,31.60
2018-07-30T08:48:40.004Z,32.10
2018-07-30T08:50:17.184Z,32.50
2018-07-30T08:51:56.120Z,32.80
2018-07-30T08:53:37.389Z,32.90
2018-07-30T08:55:18.966Z,33.00
2018-07-30T08:56:58.550Z,32.80
2018-07-30T09:00:28.680Z,32.70
2018-07-30T09:02:07.001Z,32.10
2018-07-30T09:03:43.462Z,32.20
2018-07-30T09:05:22.215Z,32.50
2018-07-30T09:06:58.812Z,33.00
2018-07-30T09:08:37.281Z,33.10
2018-07-30T09:10:14.965Z,33.10
2018-07-30T09:11:53.483Z,33.30
2018-07-30T09:13:31.339Z,33.10
2018-07-30T09:15:15.114Z,32.50
2018-07-30T09:16:59.928Z,32.60
2018-07-30T09:18:40.540Z,32.70
2018-07-30T09:20:18.912Z,33.20
2018-07-30T09:21:56.749Z,33.20
2018-07-30T09:23:34.394Z,32.70
2018-07-30T09:25:15.624Z,32.20
2018-07-30T09:26:56.084Z,31.90
2018-07-30T09:28:32.637Z,31.60
2018-07-30T09:30:11.975Z,31.40
2018-07-30T09:31:53.936Z,31.80
2018-07-30T09:33:31.347Z,32.00
2018-07-30T09:35:12.817Z,31.90
2018-07-30T09:36:52.959Z,32.10
2018-07-30T09:38:31.650Z,32.80
2018-07-30T09:40:10.599Z,33.00
2018-07-30T09:41:53.199Z,33.20
2018-07-30T09:43:33.018Z,33.20
2018-07-30T09:45:15.422Z,33.30
2018-07-30T09:46:51.955Z,33.10
2018-07-30T09:48:35.728Z,31.50
2018-07-30T09:50:13.719Z,30.50
2018-07-30T09:51:51.744Z,30.10
2018-07-30T09:53:29.499Z,30.20
2018-07-30T09:55:07.677Z,30.60
2018-07-30T09:56:48.038Z,31.00
2018-07-30T09:58:25.216Z,31.10
2018-07-30T10:00:01.721Z,31.60
2018-07-30T10:03:16.790Z,32.80
2018-07-30T10:04:55.478Z,33.10
2018-07-30T10:06:32.060Z,33.20
2018-07-30T10:08:10.719Z,32.90
2018-07-30T10:09:48.408Z,32.60
2018-07-30T10:11:24.980Z,32.60
2018-07-30T10:13:03.032Z,32.70
2018-07-30T10:14:39.494Z,32.80
2018-07-30T10:16:17.244Z,32.70
2018-07-30T10:17:54.739Z,32.00
2018-07-30T10:19:31.249Z,32.20
2018-07-30T10:21:09.083Z,31.90
2018-07-30T10:22:48.015Z,32.50
2018-07-30T10:24:25.209Z,32.70
2018-07-30T10:26:09.526Z,32.10
2018-07-30T10:27:46.935Z,31.40
2018-07-30T10:29:24.777Z,31.30
2018-07-30T10:31:01.650Z,31.90
2018-07-30T10:32:42.341Z,31.30
2018-07-30T10:34:21.473Z,31.00
2018-07-30T10:35:59.498Z,31.60
2018-07-30T10:37:42.021Z,32.20
2018-07-30T10:39:20.126Z,32.70
2018-07-30T10:41:00.544Z,32.70
2018-07-30T10:42:45.625Z,33.10
2018-07-30T10:44:24.886Z,33.40
2018-07-30T10:46:01.383Z,33.50
2018-07-30T10:47:41.309Z,33.50
2018-07-30T10:49:30.103Z,33.50
2018-07-30T10:51:10.703Z,33.70
2018-07-30T10:52:51.749Z,33.70
2018-07-30T10:54:31.221Z,33.60
2018-07-30T10:56:10.760Z,33.50
2018-07-30T10:58:09.496Z,33.70
2018-07-30T10:59:51.403Z,33.80
2018-07-30T11:03:44.204Z,33.90
2018-07-30T11:07:14.876Z,33.60
2018-07-30T11:09:09.231Z,33.10
2018-07-30T11:10:51.213Z,33.40
2018-07-30T11:12:30.848Z,33.70
2018-07-30T11:14:12.509Z,33.50
2018-07-30T11:15:50.235Z,33.30
2018-07-30T11:17:40.385Z,33.50
2018-07-30T11:19:25.675Z,33.30
2018-07-30T11:21:03.446Z,33.70
2018-07-30T11:22:43.216Z,34.10
2018-07-30T11:24:21.961Z,34.20
2018-07-30T11:26:02.819Z,33.60
2018-07-30T11:27:39.281Z,33.10
2018-07-30T11:29:16.987Z,33.50
2018-07-30T11:30:55.590Z,33.60
2018-07-30T11:32:34.868Z,33.10
2018-07-30T11:34:12.717Z,32.60
2018-07-30T11:35:49.638Z,32.40
2018-07-30T11:37:27.401Z,32.80
2018-07-30T11:39:04.230Z,33.30
2018-07-30T11:40:41.573Z,32.80
2018-07-30T11:42:18.624Z,32.70
2018-07-30T11:43:55.923Z,33.00
2018-07-30T11:45:33.570Z,33.50
2018-07-30T11:47:10.688Z,33.80
2018-07-30T11:48:50.071Z,34.00
2018-07-30T11:50:29.917Z,34.30
2018-07-30T11:52:07.618Z,34.40
2018-07-30T11:53:44.199Z,34.50
2018-07-30T11:55:27.362Z,34.50
2018-07-30T11:57:06.810Z,34.50
2018-07-30T11:58:44.475Z,33.70
2018-07-30T12:00:22.369Z,32.80
2018-07-30T12:02:00.638Z,32.60
2018-07-30T12:03:38.594Z,31.80
2018-07-30T12:05:18.429Z,31.60
2018-07-30T12:06:56.123Z,31.70
2018-07-30T12:08:35.052Z,32.20
2018-07-30T12:10:14.480Z,32.60
2018-07-30T12:11:59.958Z,32.70
2018-07-30T12:13:39.207Z,33.30
2018-07-30T12:15:25.626Z,33.70
2018-07-30T12:17:14.309Z,34.20
2018-07-30T12:19:02.545Z,34.70
2018-07-30T12:24:07.190Z,33.50
2018-07-30T12:31:34.509Z,34.30
2018-07-30T12:33:10.993Z,33.90
2018-07-30T12:34:51.838Z,34.40
2018-07-30T12:36:29.255Z,34.70
2018-07-30T12:38:12.235Z,34.60
2018-07-30T12:39:49.533Z,34.50
2018-07-30T12:41:27.592Z,34.50
2018-07-30T12:43:05.850Z,34.50
2018-07-30T12:44:44.386Z,34.60
2018-07-30T12:46:24.190Z,34.00
2018-07-30T12:48:03.462Z,33.70
2018-07-30T12:49:40.200Z,33.70
2018-07-30T12:51:16.811Z,34.30
2018-07-30T12:52:54.956Z,34.70
2018-07-30T12:54:32.729Z,34.80
2018-07-30T12:56:10.485Z,35.30
2018-07-30T12:57:47.885Z,35.50
2018-07-30T12:59:24.803Z,35.10
2018-07-30T13:01:07.470Z,35.30
2018-07-30T13:02:46.248Z,35.60
2018-07-30T13:06:05.180Z,35.90
2018-07-30T13:07:43.506Z,36.00
2018-07-30T13:09:24.720Z,36.00
2018-07-30T13:11:03.384Z,35.90
2018-07-30T13:12:41.180Z,36.10
2018-07-30T13:14:20.994Z,36.20
2018-07-30T13:15:58.354Z,36.30
2018-07-30T13:17:36.524Z,36.20
2018-07-30T13:19:13.762Z,36.10
2018-07-30T13:20:50.400Z,36.10
2018-07-30T13:22:28.723Z,35.80
2018-07-30T13:24:06.443Z,35.70
2018-07-30T13:25:43.987Z,35.70
2018-07-30T13:27:20.579Z,34.80
2018-07-30T13:28:58.625Z,34.30
2018-07-30T13:30:38.738Z,34.00
2018-07-30T13:32:20.588Z,33.90
2018-07-30T13:34:00.615Z,33.50
2018-07-30T13:35:38.628Z,33.10
2018-07-30T13:37:16.788Z,33.20
2018-07-30T13:38:53.571Z,32.90
2018-07-30T13:40:31.272Z,32.90
2018-07-30T13:42:12.528Z,33.10
2018-07-30T13:43:53.506Z,33.60
2018-07-30T13:45:32.600Z,34.00
2018-07-30T13:47:14.667Z,34.30
2018-07-30T13:48:52.789Z,34.40
2018-07-30T13:50:33.980Z,35.00
2018-07-30T13:52:12.936Z,35.40
2018-07-30T13:53:50.651Z,35.60
2018-07-30T13:55:27.147Z,35.80
2018-07-30T13:57:09.656Z,35.90
2018-07-30T13:58:48.016Z,36.20
2018-07-30T14:00:29.876Z,36.30
2018-07-30T14:02:09.092Z,36.20
2018-07-30T14:03:46.320Z,35.70
2018-07-30T14:05:23.289Z,35.50
2018-07-30T14:07:02.337Z,35.70
2018-07-30T14:08:42.470Z,36.00
2018-07-30T14:10:21.538Z,36.20
2018-07-30T14:13:52.775Z,36.30
2018-07-30T14:15:34.253Z,36.60
2018-07-30T14:17:15.160Z,36.60
2018-07-30T14:18:54.406Z,36.80
2018-07-30T14:20:51.582Z,36.30
2018-07-30T14:24:11.221Z,35.80
2018-07-30T14:25:52.975Z,36.10
2018-07-30T14:27:30.647Z,35.90
2018-07-30T14:29:17.377Z,35.70
2018-07-30T14:30:54.670Z,36.00
2018-07-30T14:32:44.159Z,36.50
2018-07-30T14:34:21.319Z,35.60
2018-07-30T14:35:58.682Z,34.90
2018-07-30T14:37:35.780Z,35.00
2018-07-30T14:39:12.451Z,35.10
2018-07-30T14:40:51.743Z,35.30
2018-07-30T14:42:32.245Z,35.80
2018-07-30T14:44:08.986Z,36.20
2018-07-30T14:45:46.702Z,36.30
2018-07-30T14:47:23.661Z,36.30
2018-07-30T14:49:00.683Z,36.20
2018-07-30T14:52:20.623Z,36.40
2018-07-30T14:53:58.671Z,36.20
2018-07-30T14:55:38.096Z,36.30
2018-07-30T14:57:15.899Z,36.40
2018-07-30T14:58:54.454Z,36.40
2018-07-30T15:00:35.867Z,36.30
2018-07-30T15:02:12.979Z,36.20
2018-07-30T15:03:49.846Z,36.30
2018-07-30T15:05:26.643Z,36.40
2018-07-30T15:07:04.611Z,36.30
2018-07-30T15:08:41.496Z,36.10
2018-07-30T15:10:40.829Z,36.30
2018-07-30T15:12:19.411Z,36.00
2018-07-30T15:13:56.887Z,36.00
2018-07-30T15:15:35.078Z,36.40
2018-07-30T15:17:33.580Z,36.70
2018-07-30T15:19:11.001Z,36.70
2018-07-30T15:20:48.656Z,36.80
2018-07-30T15:22:25.475Z,36.60
2018-07-30T15:24:14.941Z,36.50
2018-07-30T15:25:58.475Z,36.40
2018-07-30T15:27:35.061Z,36.40
2018-07-30T15:29:11.644Z,36.50
2018-07-30T15:30:48.586Z,36.50
2018-07-30T15:32:25.574Z,36.40
2018-07-30T15:34:02.063Z,36.40
2018-07-30T15:35:39.300Z,36.40
2018-07-30T15:37:19.846Z,36.50
2018-07-30T15:38:57.635Z,36.50
2018-07-30T15:40:34.613Z,36.30
2018-07-30T15:42:13.397Z,36.40
2018-07-30T15:43:51.613Z,36.50
2018-07-30T15:45:29.780Z,36.50
2018-07-30T15:47:07.262Z,36.60
2018-07-30T15:48:45.924Z,36.60
2018-07-30T15:50:44.111Z,36.40
2018-07-30T15:52:22.488Z,36.40
2018-07-30T15:54:00.666Z,36.50
2018-07-30T15:55:37.311Z,36.50
2018-07-30T15:57:14.923Z,36.60
2018-07-30T15:59:12.954Z,36.80
2018-07-30T16:01:56.494Z,36.80
2018-07-30T16:03:36.080Z,36.70
2018-07-30T16:05:17.589Z,36.60
2018-07-30T16:06:54.185Z,36.70
2018-07-30T16:08:32.719Z,36.80
2018-07-30T16:10:09.616Z,36.80
2018-07-30T16:11:49.797Z,36.80
2018-07-30T16:13:28.024Z,36.60
2018-07-30T16:17:04.260Z,36.60
2018-07-30T16:18:40.944Z,36.10
2018-07-30T16:20:19.195Z,36.00
2018-07-30T16:22:11.391Z,36.20
2018-07-30T16:23:50.259Z,36.40
2018-07-30T16:25:35.804Z,36.60
2018-07-30T16:27:14.621Z,36.70
2018-07-30T16:28:55.729Z,35.80
2018-07-30T16:30:33.829Z,35.90
2018-07-30T16:32:14.781Z,36.10
2018-07-30T16:34:00.430Z,35.60
2018-07-30T16:38:11.663Z,35.90
2018-07-30T16:39:54.521Z,35.40
2018-07-30T16:41:33.292Z,35.60
2018-07-30T16:43:23.826Z,35.80
2018-07-30T16:45:04.912Z,36.00
2018-07-30T16:47:00.676Z,36.00
2018-07-30T16:48:47.189Z,35.90
2018-07-30T16:50:53.446Z,36.10
2018-07-30T16:52:37.697Z,35.90
2018-07-30T16:54:25.561Z,35.70
2018-07-30T16:56:04.896Z,36.00
2018-07-30T16:57:42.837Z,36.20
2018-07-30T16:59:21.243Z,36.00
2018-07-30T17:01:00.180Z,35.90
2018-07-30T17:02:37.942Z,35.70
2018-07-30T17:04:16.099Z,35.90
2018-07-30T17:05:53.355Z,36.10
2018-07-30T17:07:31.338Z,36.30
2018-07-30T17:09:12.588Z,36.40
2018-07-30T17:10:50.931Z,36.40
2018-07-30T17:12:31.788Z,36.40
2018-07-30T17:14:12.084Z,36.20
2018-07-30T17:15:51.968Z,36.30
2018-07-30T17:17:32.563Z,36.50
2018-07-30T17:19:09.645Z,36.30
2018-07-30T17:20:48.904Z,36.20
2018-07-30T17:22:27.605Z,36.20
2018-07-30T17:24:06.342Z,35.90
2018-07-30T17:25:44.459Z,35.70
2018-07-30T17:27:22.640Z,35.70
2018-07-30T17:29:01.214Z,35.90
2018-07-30T17:30:39.692Z,36.10
2018-07-30T17:32:19.706Z,36.10
2018-07-30T17:33:56.680Z,35.90
2018-07-30T17:35:34.745Z,36.00
2018-07-30T17:37:14.740Z,36.00
2018-07-30T17:39:11.213Z,36.00
2018-07-30T17:40:50.271Z,35.80
2018-07-30T17:42:38.470Z,35.70
2018-07-30T17:44:34.317Z,35.50
2018-07-30T17:46:16.672Z,35.40
2018-07-30T17:47:58.048Z,35.20
2018-07-30T17:49:39.131Z,34.80
2018-07-30T17:51:20.030Z,35.00
2018-07-30T17:52:58.505Z,35.30
2018-07-30T17:54:38.712Z,35.30
2018-07-30T17:56:17.832Z,35.40
2018-07-30T17:57:54.851Z,35.40
2018-07-30T17:59:35.621Z,35.40
2018-07-30T18:01:13.783Z,35.40
2018-07-30T18:02:52.468Z,35.20
2018-07-30T18:04:33.726Z,35.30
2018-07-30T18:06:12.003Z,35.40
2018-07-30T18:07:54.710Z,35.70
2018-07-30T18:09:47.699Z,35.80
2018-07-30T18:13:04.963Z,35.70
2018-07-30T18:17:25.921Z,35.10
2018-07-30T18:19:05.304Z,35.20
2018-07-30T18:20:47.533Z,35.30
2018-07-30T18:22:28.153Z,35.20
2018-07-30T18:24:06.440Z,35.30
2018-07-30T18:25:44.541Z,35.30
2018-07-30T18:27:21.419Z,35.10
2018-07-30T18:29:02.531Z,35.20
2018-07-30T18:30:40.602Z,35.20
2018-07-30T18:32:22.475Z,35.10
2018-07-30T18:34:02.598Z,35.00
2018-07-30T18:35:42.490Z,35.00
2018-07-30T18:37:23.561Z,35.20
2018-07-30T18:39:04.885Z,35.10
2018-07-30T18:40:45.482Z,35.20
2018-07-30T18:42:23.450Z,35.30
2018-07-30T18:47:18.629Z,34.70
2018-07-30T18:48:56.571Z,34.70
2018-07-30T18:50:37.312Z,34.90
2018-07-30T18:52:17.551Z,35.00
2018-07-30T18:53:54.505Z,34.90
2018-07-30T18:55:30.981Z,34.90
2018-07-30T18:57:08.005Z,34.80
2018-07-30T18:58:48.495Z,34.90
2018-07-30T19:00:27.281Z,34.90
2018-07-30T19:02:09.524Z,34.90
2018-07-30T19:03:47.370Z,34.80
2018-07-30T19:05:27.931Z,34.80
2018-07-30T19:07:05.485Z,34.70
2018-07-30T19:08:41.982Z,34.70
2018-07-30T19:10:20.572Z,34.60
2018-07-30T19:11:59.453Z,34.50
2018-07-30T19:13:36.571Z,34.50
2018-07-30T19:15:16.383Z,34.40
2018-07-30T19:16:59.655Z,34.20
2018-07-30T19:18:39.525Z,34.10
2018-07-30T19:20:17.875Z,33.90
2018-07-30T19:21:57.425Z,33.70
2018-07-30T19:23:36.484Z,33.60
2018-07-30T19:25:13.511Z,33.50
2018-07-30T19:26:52.151Z,33.30
2018-07-30T19:28:30.264Z,33.00
2018-07-30T19:30:09.336Z,33.00
2018-07-30T19:31:49.589Z,32.90
2018-07-30T19:33:33.307Z,32.90
2018-07-30T19:35:14.490Z,33.00
2018-07-30T19:36:52.782Z,32.90
2018-07-30T19:38:34.452Z,33.00
2018-07-30T19:40:12.542Z,33.00
2018-07-30T19:41:52.068Z,33.20
2018-07-30T19:43:29.453Z,33.20
2018-07-30T19:45:08.451Z,33.10
2018-07-30T19:46:47.522Z,33.00
2018-07-30T19:48:27.451Z,32.90
2018-07-30T19:50:06.657Z,33.00
2018-07-30T19:51:46.651Z,33.00
2018-07-30T19:53:25.255Z,32.90
2018-07-30T19:55:03.551Z,32.90
2018-07-30T19:56:45.023Z,32.90
2018-07-30T19:58:26.419Z,32.80
2018-07-30T20:00:11.501Z,32.70
2018-07-30T20:01:57.858Z,32.60
2018-07-30T20:03:36.456Z,32.50
2018-07-30T20:05:14.529Z,32.50
2018-07-30T20:06:52.600Z,32.40
2018-07-30T20:08:29.956Z,32.40
2018-07-30T20:10:11.438Z,32.30
2018-07-30T20:11:48.534Z,32.00
2018-07-30T20:13:29.971Z,31.90
2018-07-30T20:15:08.794Z,31.90
2018-07-30T20:18:25.771Z,31.90
2018-07-30T20:20:02.793Z,31.90
2018-07-30T20:21:39.928Z,31.80
2018-07-30T20:23:16.879Z,31.70
2018-07-30T20:24:54.016Z,31.70
2018-07-30T20:26:38.555Z,31.70
2018-07-30T20:28:17.523Z,31.60
2018-07-30T20:29:55.236Z,31.60
2018-07-30T20:31:35.232Z,31.60
2018-07-30T20:33:13.056Z,31.60
2018-07-30T20:34:54.256Z,31.60
2018-07-30T20:36:33.425Z,31.50
2018-07-30T20:39:12.552Z,31.60
2018-07-30T20:40:53.232Z,31.60
2018-07-30T20:42:40.044Z,31.50
2018-07-30T20:44:19.677Z,31.50
2018-07-30T20:46:03.488Z,31.60
2018-07-30T20:47:41.217Z,31.70
2018-07-30T20:49:22.331Z,31.70
2018-07-30T20:51:00.757Z,31.70
2018-07-30T20:52:40.157Z,31.70
2018-07-30T20:54:18.191Z,31.60
2018-07-30T20:55:58.829Z,31.60
2018-07-30T20:57:36.338Z,31.60
2018-07-30T20:59:14.540Z,31.50
2018-07-30T21:00:54.366Z,31.50
2018-07-30T21:02:34.020Z,31.50
2018-07-30T21:04:11.324Z,31.50
2018-07-30T21:05:50.842Z,31.50
2018-07-30T21:07:28.353Z,31.60
2018-07-30T21:10:46.512Z,31.80
2018-07-30T21:12:26.926Z,32.40
2018-07-30T21:14:05.812Z,32.50
2018-07-30T21:17:23.547Z,31.80
2018-07-30T21:19:01.766Z,31.90
2018-07-30T21:20:39.013Z,31.90
2018-07-30T21:22:16.030Z,31.80
2018-07-30T21:23:55.297Z,31.70
2018-07-30T21:25:48.457Z,31.60
2018-07-30T21:27:26.655Z,31.60
2018-07-30T21:29:07.829Z,31.40
2018-07-30T21:30:48.625Z,31.40
2018-07-30T21:32:38.234Z,31.40
2018-07-30T21:34:17.491Z,31.30
2018-07-30T21:35:56.648Z,31.50
2018-07-30T21:37:34.742Z,31.40
2018-07-30T21:39:14.563Z,31.20
2018-07-30T21:40:52.054Z,31.10
2018-07-30T21:42:28.885Z,31.10
2018-07-30T21:44:06.304Z,31.10
2018-07-30T21:45:52.793Z,30.90
2018-07-30T21:47:31.715Z,31.00
2018-07-30T21:49:25.282Z,31.00
2018-07-30T21:51:02.344Z,31.00
2018-07-30T21:52:41.615Z,30.90
2018-07-30T21:54:19.384Z,31.00
2018-07-30T21:55:57.355Z,30.90
2018-07-30T21:57:35.325Z,31.00
2018-07-30T21:59:13.997Z,30.80
2018-07-30T22:00:58.845Z,30.70
2018-07-30T22:02:35.480Z,30.70
2018-07-30T22:04:12.440Z,30.80
2018-07-30T22:05:52.941Z,30.80
2018-07-30T22:07:32.224Z,30.90
2018-07-30T22:09:11.495Z,30.80
2018-07-30T22:10:49.313Z,30.70
2018-07-30T22:12:29.079Z,30.60
2018-07-30T22:14:07.566Z,30.60
2018-07-30T22:15:50.506Z,30.70
2018-07-30T22:17:30.754Z,30.70
2018-07-30T22:19:07.420Z,30.70
2018-07-30T22:20:44.381Z,30.70
2018-07-30T22:22:22.727Z,30.50
2018-07-30T22:24:00.811Z,30.60
2018-07-30T22:25:37.451Z,30.70
2018-07-30T22:27:15.432Z,30.60
2018-07-30T22:28:59.940Z,30.60
2018-07-30T22:30:40.104Z,30.60